createdAt,value
2018-06-08T00:01:02.986Z,99.90
2018-06-08T00:03:29.834Z,99.90
2018-06-08T00:05:58.370Z,99.90
2018-06-08T00:08:25.786Z,99.90
2018-06-08T00:10:53.057Z,99.90
2018-06-08T00:13:20.604Z,99.90
2018-06-08T00:15:47.658Z,99.90
2018-06-08T00:18:15.021Z,99.90
2018-06-08T00:20:41.967Z,99.90
2018-06-08T00:23:09.235Z,99.90
2018-06-08T00:25:37.059Z,99.90
2018-06-08T00:28:05.991Z,99.90
2018-06-08T00:30:32.941Z,99.90
2018-06-08T00:32:59.893Z,99.90
2018-06-08T00:35:26.744Z,99.90
2018-06-08T00:37:53.592Z,99.90
2018-06-08T00:40:20.543Z,99.90
2018-06-08T00:42:47.390Z,99.90
2018-06-08T00:45:14.648Z,99.90
2018-06-08T00:47:41.496Z,99.90
2018-06-08T00:50:08.345Z,99.90
2018-06-08T00:52:35.193Z,99.90
2018-06-08T00:55:01.943Z,99.90
2018-06-08T00:57:28.711Z,99.90
2018-06-08T00:59:55.536Z,99.90
2018-06-08T01:02:22.385Z,99.90
2018-06-08T01:04:49.130Z,99.90
2018-06-08T01:07:15.983Z,99.90
2018-06-08T01:09:42.827Z,99.90
2018-06-08T01:12:09.676Z,99.90
2018-06-08T01:14:36.935Z,99.90
2018-06-08T01:17:03.883Z,99.90
2018-06-08T01:19:30.936Z,99.90
2018-06-08T01:21:57.722Z,99.90
2018-06-08T01:24:25.966Z,99.90
2018-06-08T01:26:52.813Z,99.90
2018-06-08T01:29:19.662Z,99.90
2018-06-08T01:31:46.410Z,99.90
2018-06-08T01:34:13.569Z,99.90
2018-06-08T01:36:40.516Z,99.90
2018-06-08T01:39:07.362Z,99.90
2018-06-08T01:41:34.157Z,99.90
2018-06-08T01:44:01.650Z,99.90
2018-06-08T01:46:28.528Z,99.90
2018-06-08T01:48:55.371Z,99.90
2018-06-08T01:51:22.223Z,99.90
2018-06-08T01:53:49.070Z,99.90
2018-06-08T01:56:16.123Z,99.90
2018-06-08T01:58:42.868Z,99.90
2018-06-08T02:01:09.717Z,99.90
2018-06-08T02:03:36.667Z,99.90
2018-06-08T02:06:03.625Z,99.90
2018-06-08T02:08:30.571Z,99.90
2018-06-08T02:10:57.523Z,99.90
2018-06-08T02:13:24.369Z,99.90
2018-06-08T02:15:51.114Z,99.90
2018-06-08T02:18:18.068Z,99.90
2018-06-08T02:20:45.733Z,99.90
2018-06-08T02:23:12.684Z,99.90
2018-06-08T02:25:39.533Z,99.90
2018-06-08T02:28:06.382Z,99.90
2018-06-08T02:30:33.130Z,99.90
2018-06-08T02:32:59.977Z,99.90
2018-06-08T02:35:26.835Z,99.90
2018-06-08T02:37:53.673Z,99.90
2018-06-08T02:40:20.529Z,99.90
2018-06-08T02:42:47.372Z,99.90
2018-06-08T02:45:14.638Z,99.90
2018-06-08T02:47:41.478Z,99.90
2018-06-08T02:50:08.327Z,99.90
2018-06-08T02:52:35.280Z,99.90
2018-06-08T02:55:02.230Z,99.90
2018-06-08T02:57:29.181Z,99.90
2018-06-08T02:59:57.052Z,99.90
2018-06-08T03:02:23.766Z,99.90
2018-06-08T03:04:50.544Z,99.90
2018-06-08T03:07:17.392Z,99.90
2018-06-08T03:09:44.345Z,99.90
2018-06-08T03:12:11.163Z,99.90
2018-06-08T03:14:38.859Z,99.90
2018-06-08T03:17:05.812Z,99.90
2018-06-08T03:19:32.662Z,99.90
2018-06-08T03:21:59.713Z,99.90
2018-06-08T03:24:26.715Z,99.90
2018-06-08T03:26:54.739Z,99.90
2018-06-08T03:29:21.589Z,99.90
2018-06-08T03:31:48.438Z,99.90
2018-06-08T03:34:15.217Z,99.90
2018-06-08T03:36:43.423Z,99.90
2018-06-08T03:39:11.131Z,99.90
2018-06-08T03:41:37.877Z,99.90
2018-06-08T03:44:05.547Z,99.90
2018-06-08T03:46:32.494Z,99.90
2018-06-08T03:48:59.363Z,99.90
2018-06-08T03:51:26.193Z,99.90
2018-06-08T03:53:53.143Z,99.90
2018-06-08T03:56:19.903Z,99.90
2018-06-08T03:58:46.743Z,99.90
2018-06-08T04:01:13.591Z,99.90
2018-06-08T04:03:40.536Z,99.90
2018-06-08T04:06:07.304Z,99.90
2018-06-08T04:08:34.134Z,99.90
2018-06-08T04:11:00.981Z,99.90
2018-06-08T04:13:27.728Z,99.90
2018-06-08T04:15:54.598Z,99.90
2018-06-08T04:18:21.529Z,99.90
2018-06-08T04:20:48.377Z,99.90
2018-06-08T04:23:16.043Z,99.90
2018-06-08T04:25:42.943Z,99.90
2018-06-08T04:28:10.459Z,99.90
2018-06-08T04:30:37.718Z,99.90
2018-06-08T04:33:04.823Z,96.60
2018-06-08T04:35:32.542Z,85.60
2018-06-08T04:37:59.280Z,85.50
2018-06-08T04:40:26.057Z,78.40
2018-06-08T04:42:54.008Z,68.60
2018-06-08T04:45:20.854Z,68.60
2018-06-08T04:47:47.805Z,63.40
2018-06-08T04:50:14.766Z,60.40
2018-06-08T04:52:41.604Z,58.50
2018-06-08T04:55:08.556Z,56.00
2018-06-08T04:57:35.403Z,55.50
2018-06-08T05:00:02.355Z,51.80
2018-06-08T05:02:29.511Z,49.80
2018-06-08T05:04:56.462Z,49.80
2018-06-08T05:07:23.410Z,48.00
2018-06-08T05:09:50.365Z,44.40
2018-06-08T05:12:17.206Z,45.80
2018-06-08T05:14:44.058Z,44.00
2018-06-08T05:17:10.959Z,45.70
2018-06-08T05:19:38.678Z,43.80
2018-06-08T05:22:06.959Z,41.80
2018-06-08T05:24:34.626Z,43.20
2018-06-08T05:27:01.476Z,43.20
2018-06-08T05:29:28.284Z,43.40
2018-06-08T05:31:55.072Z,44.80
2018-06-08T05:34:22.228Z,45.70
2018-06-08T05:36:49.019Z,45.70
2018-06-08T05:39:16.640Z,45.00
2018-06-08T05:41:43.690Z,44.90
2018-06-08T05:44:10.590Z,45.00
2018-06-08T05:46:37.494Z,46.90
2018-06-08T05:49:04.442Z,47.10
2018-06-08T05:51:31.190Z,46.10
2018-06-08T05:53:58.036Z,45.50
2018-06-08T05:56:24.808Z,44.20
2018-06-08T05:58:51.553Z,44.20
2018-06-08T06:01:25.851Z,43.60
2018-06-08T06:03:52.807Z,42.50
2018-06-08T06:06:19.651Z,41.70
2018-06-08T06:08:46.497Z,41.70
2018-06-08T06:11:13.450Z,41.80
2018-06-08T06:13:40.298Z,41.80
2018-06-08T06:16:07.153Z,41.50
2018-06-08T06:18:34.098Z,40.20
2018-06-08T06:21:01.131Z,39.50
2018-06-08T06:23:27.996Z,38.50
2018-06-08T06:25:55.768Z,35.10
2018-06-08T06:28:24.149Z,35.70
2018-06-08T06:30:51.101Z,35.70
2018-06-08T06:33:17.952Z,36.00
2018-06-08T06:35:44.799Z,35.70
2018-06-08T06:38:11.752Z,35.30
2018-06-08T06:40:38.597Z,33.80
2018-06-08T06:43:05.451Z,34.30
2018-06-08T06:45:32.295Z,33.20
2018-06-08T06:47:59.092Z,31.60
2018-06-08T06:50:26.299Z,31.90
2018-06-08T06:52:53.147Z,34.10
2018-06-08T06:55:20.101Z,33.00
2018-06-08T06:57:47.053Z,33.40
2018-06-08T07:00:13.903Z,34.70
2018-06-08T07:02:41.259Z,33.10
2018-06-08T07:05:08.005Z,34.20
2018-06-08T07:07:34.853Z,31.50
2018-06-08T07:10:01.809Z,32.60
2018-06-08T07:12:28.756Z,32.20
2018-06-08T07:14:55.706Z,32.50
2018-06-08T07:17:22.557Z,34.00
2018-06-08T07:19:49.507Z,34.40
2018-06-08T07:22:16.456Z,36.30
2018-06-08T07:24:43.312Z,33.60
2018-06-08T07:27:10.155Z,34.20
2018-06-08T07:29:37.005Z,34.00
2018-06-08T07:32:03.988Z,33.00
2018-06-08T07:34:31.621Z,32.90
2018-06-08T07:36:58.473Z,32.90
2018-06-08T07:39:25.419Z,33.20
2018-06-08T07:41:52.165Z,33.80
2018-06-08T07:44:19.116Z,32.80
2018-06-08T07:46:45.983Z,31.50
2018-06-08T07:49:12.941Z,31.00
2018-06-08T07:51:39.869Z,30.30
2018-06-08T07:54:06.615Z,29.70
2018-06-08T07:56:34.402Z,30.80
2018-06-08T07:59:01.162Z,31.40
2018-06-08T08:01:29.409Z,31.50
2018-06-08T08:03:56.362Z,31.40
2018-06-08T08:06:23.927Z,33.60
2018-06-08T08:08:50.778Z,33.60
2018-06-08T08:11:17.727Z,33.50
2018-06-08T08:13:44.579Z,34.30
2018-06-08T08:16:11.434Z,35.10
2018-06-08T08:18:38.684Z,34.10
2018-06-08T08:21:05.531Z,33.20
2018-06-08T08:23:32.379Z,35.00
2018-06-08T08:25:59.331Z,34.20
2018-06-08T08:28:27.102Z,33.50
2018-06-08T08:30:53.948Z,33.40
2018-06-08T08:33:20.899Z,34.50
2018-06-08T08:35:47.849Z,35.70
2018-06-08T08:38:14.703Z,36.00
2018-06-08T08:40:41.754Z,36.40
2018-06-08T08:43:09.318Z,38.10
2018-06-08T08:45:36.334Z,38.00
2018-06-08T08:48:03.859Z,38.30
2018-06-08T08:50:32.319Z,39.00
2018-06-08T08:52:59.168Z,39.00
2018-06-08T08:55:26.119Z,39.90
2018-06-08T08:57:52.965Z,41.40
2018-06-08T09:00:19.819Z,43.50
2018-06-08T09:02:46.765Z,46.30
2018-06-08T09:05:13.620Z,45.60
2018-06-08T09:07:40.470Z,46.30
2018-06-08T09:10:07.416Z,46.70
2018-06-08T09:12:34.571Z,47.20
2018-06-08T09:15:01.527Z,50.20
2018-06-08T09:17:28.472Z,48.80
2018-06-08T09:19:55.424Z,49.70
2018-06-08T09:22:22.273Z,48.00
2018-06-08T09:24:49.462Z,47.30
2018-06-08T09:27:17.915Z,45.40
2018-06-08T09:29:44.761Z,45.30
2018-06-08T09:32:11.715Z,46.70
2018-06-08T09:34:38.562Z,46.40
2018-06-08T09:37:05.409Z,45.00
2018-06-08T09:39:32.260Z,45.70
2018-06-08T09:41:59.415Z,45.20
2018-06-08T09:44:26.203Z,45.50
2018-06-08T09:46:53.010Z,46.60
2018-06-08T09:49:19.859Z,46.50
2018-06-08T09:51:46.807Z,48.60
2018-06-08T09:54:13.672Z,49.60
2018-06-08T09:56:40.504Z,48.70
2018-06-08T09:59:07.456Z,46.40
2018-06-08T10:01:34.304Z,48.90
2018-06-08T10:04:01.256Z,47.10
2018-06-08T10:06:28.109Z,46.10
2018-06-08T10:08:54.875Z,46.60
2018-06-08T10:11:21.783Z,45.90
2018-06-08T10:13:48.652Z,46.50
2018-06-08T10:16:15.499Z,47.20
2018-06-08T10:18:42.653Z,47.60
2018-06-08T10:21:09.504Z,48.30
2018-06-08T10:23:36.361Z,48.50
2018-06-08T10:26:03.104Z,46.60
2018-06-08T10:28:30.055Z,46.70
2018-06-08T10:30:57.002Z,47.40
2018-06-08T10:33:23.874Z,45.70
2018-06-08T10:35:50.801Z,46.50
2018-06-08T10:38:17.755Z,47.30
2018-06-08T10:40:45.012Z,47.80
2018-06-08T10:43:11.859Z,46.90
2018-06-08T10:45:38.807Z,46.00
2018-06-08T10:48:05.658Z,46.10
2018-06-08T10:50:32.506Z,46.80
2018-06-08T10:52:59.351Z,46.40
2018-06-08T10:55:26.302Z,45.40
2018-06-08T10:57:53.052Z,46.90
2018-06-08T11:00:19.901Z,48.70
2018-06-08T11:02:46.852Z,47.60
2018-06-08T11:05:13.699Z,46.90
2018-06-08T11:07:40.593Z,46.70
2018-06-08T11:10:07.496Z,46.50
2018-06-08T11:12:34.452Z,44.80
2018-06-08T11:15:01.408Z,45.70
2018-06-08T11:17:28.452Z,45.20
2018-06-08T11:19:55.452Z,46.40
2018-06-08T11:22:23.788Z,46.50
2018-06-08T11:24:50.532Z,46.60
2018-06-08T11:27:17.486Z,47.30
2018-06-08T11:29:44.331Z,47.00
2018-06-08T11:32:12.002Z,47.00
2018-06-08T11:34:38.950Z,46.90
2018-06-08T11:37:05.806Z,47.80
2018-06-08T11:39:32.643Z,49.20
2018-06-08T11:41:59.395Z,47.90
2018-06-08T11:44:26.244Z,48.80
2018-06-08T11:46:53.612Z,48.10
2018-06-08T11:49:20.453Z,47.50
2018-06-08T11:51:47.303Z,49.20
2018-06-08T11:54:14.252Z,48.20
2018-06-08T11:56:41.100Z,46.60
2018-06-08T11:59:07.862Z,47.50
2018-06-08T12:01:34.800Z,47.20
2018-06-08T12:04:01.752Z,46.50
2018-06-08T12:06:28.599Z,47.00
2018-06-08T12:08:55.567Z,45.90
2018-06-08T12:11:22.400Z,46.50
2018-06-08T12:13:49.350Z,46.70
2018-06-08T12:16:16.324Z,47.10
2018-06-08T12:18:43.252Z,49.70
2018-06-08T12:21:10.305Z,48.60
2018-06-08T12:23:37.254Z,47.70
2018-06-08T12:26:04.106Z,47.80
2018-06-08T12:28:30.950Z,48.40
2018-06-08T12:30:57.799Z,48.40
2018-06-08T12:33:25.365Z,48.50
2018-06-08T12:35:52.211Z,48.50
2018-06-08T12:38:18.961Z,50.10
2018-06-08T12:40:45.808Z,48.50
2018-06-08T12:43:12.586Z,48.00
2018-06-08T12:45:39.506Z,50.30
2018-06-08T12:48:06.455Z,47.80
2018-06-08T12:50:33.409Z,48.40
2018-06-08T12:53:00.203Z,48.90
2018-06-08T12:55:27.720Z,49.00
2018-06-08T12:57:54.569Z,49.00
2018-06-08T13:00:21.414Z,47.90
2018-06-08T13:02:48.367Z,47.10
2018-06-08T13:05:15.318Z,49.20
2018-06-08T13:07:42.481Z,49.30
2018-06-08T13:10:09.426Z,49.50
2018-06-08T13:12:36.379Z,48.40
2018-06-08T13:15:03.333Z,48.40
2018-06-08T13:17:30.481Z,48.00
2018-06-08T13:19:57.331Z,48.80
2018-06-08T13:22:24.178Z,50.80
2018-06-08T13:24:51.436Z,53.60
2018-06-08T13:27:18.390Z,56.60
2018-06-08T13:29:45.234Z,57.40
2018-06-08T13:32:12.091Z,59.00
2018-06-08T13:34:39.037Z,59.50
2018-06-08T13:37:05.785Z,59.90
2018-06-08T13:39:32.744Z,58.80
2018-06-08T13:42:00.504Z,58.60
2018-06-08T13:44:27.349Z,58.00
2018-06-08T13:46:54.201Z,58.90
2018-06-08T13:49:21.004Z,58.60
2018-06-08T13:51:48.509Z,58.30
2018-06-08T13:54:15.357Z,58.30
2018-06-08T13:56:42.226Z,57.60
2018-06-08T13:59:09.056Z,57.90
2018-06-08T14:01:35.806Z,58.10
2018-06-08T14:04:02.654Z,57.80
2018-06-08T14:06:29.396Z,58.60
2018-06-08T14:08:56.243Z,59.30
2018-06-08T14:11:23.195Z,58.60
2018-06-08T14:13:50.043Z,58.90
2018-06-08T14:16:16.994Z,59.80
2018-06-08T14:18:43.845Z,58.90
2018-06-08T14:21:10.695Z,59.50
2018-06-08T14:23:37.643Z,59.60
2018-06-08T14:26:04.491Z,59.10
2018-06-08T14:28:31.444Z,59.00
2018-06-08T14:30:58.290Z,58.90
2018-06-08T14:33:25.038Z,59.80
2018-06-08T14:35:52.810Z,59.40
2018-06-08T14:38:19.698Z,59.30
2018-06-08T14:40:46.506Z,59.30
2018-06-08T14:43:13.456Z,59.10
2018-06-08T14:45:40.305Z,59.00
2018-06-08T14:48:07.156Z,59.50
2018-06-08T14:50:34.104Z,59.30
2018-06-08T14:53:00.954Z,61.20
2018-06-08T14:55:27.807Z,60.60
2018-06-08T14:57:55.061Z,59.40
2018-06-08T15:00:22.037Z,61.00
2018-06-08T15:02:48.984Z,60.00
2018-06-08T15:05:15.809Z,61.00
2018-06-08T15:07:42.659Z,59.40
2018-06-08T15:10:09.510Z,60.40
2018-06-08T15:12:36.357Z,59.40
2018-06-08T15:15:03.214Z,60.10
2018-06-08T15:17:30.052Z,59.50
2018-06-08T15:19:56.901Z,59.90
2018-06-08T15:22:23.885Z,59.80
2018-06-08T15:24:50.804Z,60.10
2018-06-08T15:27:17.753Z,59.60
2018-06-08T15:29:51.564Z,60.10
2018-06-08T15:32:18.621Z,60.30
2018-06-08T15:34:45.464Z,60.30
2018-06-08T15:37:13.129Z,59.50
2018-06-08T15:39:39.979Z,59.50
2018-06-08T15:42:06.929Z,59.30
2018-06-08T15:44:33.884Z,60.10
2018-06-08T15:47:00.835Z,60.00
2018-06-08T15:49:27.550Z,60.50
2018-06-08T15:51:54.426Z,60.20
2018-06-08T15:54:21.194Z,60.60
2018-06-08T15:56:48.123Z,61.00
2018-06-08T15:59:14.975Z,61.60
2018-06-08T16:01:41.822Z,62.20
2018-06-08T16:04:08.774Z,62.40
2018-06-08T16:06:35.725Z,63.40
2018-06-08T16:09:02.675Z,62.60
2018-06-08T16:11:29.424Z,63.00
2018-06-08T16:13:56.472Z,62.90
2018-06-08T16:16:23.324Z,62.50
2018-06-08T16:18:50.271Z,62.30
2018-06-08T16:21:17.125Z,62.50
2018-06-08T16:23:44.075Z,62.90
2018-06-08T16:26:10.920Z,62.70
2018-06-08T16:28:37.871Z,62.90
2018-06-08T16:31:05.028Z,62.90
2018-06-08T16:33:31.881Z,63.30
2018-06-08T16:35:58.727Z,64.10
2018-06-08T16:38:26.391Z,63.50
2018-06-08T16:40:53.343Z,63.30
2018-06-08T16:43:20.191Z,63.90
2018-06-08T16:45:47.142Z,64.50
2018-06-08T16:48:13.913Z,64.50
2018-06-08T16:50:40.737Z,64.40
2018-06-08T16:53:07.483Z,64.30
2018-06-08T16:55:34.439Z,64.40
2018-06-08T16:58:01.285Z,64.70
2018-06-08T17:00:28.134Z,64.20
2018-06-08T17:02:54.982Z,64.40
2018-06-08T17:05:21.829Z,65.20
2018-06-08T17:07:48.678Z,64.90
2018-06-08T17:10:16.449Z,64.70
2018-06-08T17:12:43.402Z,64.80
2018-06-08T17:15:11.784Z,64.90
2018-06-08T17:17:39.520Z,65.00
2018-06-08T17:20:06.617Z,65.10
2018-06-08T17:22:33.597Z,65.60
2018-06-08T17:25:00.366Z,65.10
2018-06-08T17:27:27.201Z,65.20
2018-06-08T17:29:54.053Z,65.20
2018-06-08T17:32:20.783Z,65.40
2018-06-08T17:34:47.517Z,65.30
2018-06-08T17:37:14.310Z,65.70
2018-06-08T17:39:41.763Z,66.00
2018-06-08T17:42:09.227Z,66.50
2018-06-08T17:44:37.341Z,65.70
2018-06-08T17:47:04.064Z,65.70
2018-06-08T17:49:31.519Z,66.10
2018-06-08T17:51:59.003Z,66.80
2018-06-08T17:54:25.895Z,66.80
2018-06-08T17:56:52.708Z,66.90
2018-06-08T17:59:19.432Z,67.20
2018-06-08T18:01:46.138Z,67.30
2018-06-08T18:04:12.952Z,67.40
2018-06-08T18:06:39.759Z,67.50
2018-06-08T18:09:06.518Z,67.80
2018-06-08T18:11:33.397Z,67.90
2018-06-08T18:14:00.242Z,68.10
2018-06-08T18:16:27.191Z,68.20
2018-06-08T18:18:53.973Z,68.30
2018-06-08T18:21:21.615Z,68.40
2018-06-08T18:23:48.817Z,68.60
2018-06-08T18:26:16.599Z,69.00
2018-06-08T18:28:43.395Z,69.00
2018-06-08T18:31:10.334Z,69.00
2018-06-08T18:33:37.285Z,69.30
2018-06-08T18:36:04.130Z,69.50
2018-06-08T18:38:30.918Z,70.00
2018-06-08T18:40:58.442Z,70.00
2018-06-08T18:43:25.216Z,70.00
2018-06-08T18:45:52.039Z,70.20
2018-06-08T18:48:18.989Z,70.40
2018-06-08T18:50:46.764Z,71.30
2018-06-08T18:53:15.245Z,71.70
2018-06-08T18:55:41.946Z,71.50
2018-06-08T18:58:09.445Z,71.90
2018-06-08T19:00:36.245Z,71.80
2018-06-08T19:03:02.986Z,71.80
2018-06-08T19:05:29.756Z,72.10
2018-06-08T19:07:57.586Z,72.40
2018-06-08T19:10:24.677Z,72.30
2018-06-08T19:12:52.118Z,73.20
2018-06-08T19:15:19.033Z,73.10
2018-06-08T19:17:45.881Z,73.20
2018-06-08T19:20:14.279Z,73.40
2018-06-08T19:22:41.031Z,74.50
2018-06-08T19:25:08.598Z,74.70
2018-06-08T19:27:35.367Z,74.70
2018-06-08T19:30:02.156Z,75.00
2018-06-08T19:32:28.929Z,75.20
2018-06-08T19:34:56.436Z,75.80
2018-06-08T19:37:24.019Z,75.70
2018-06-08T19:39:50.723Z,75.70
2018-06-08T19:42:17.460Z,76.40
2018-06-08T19:44:44.249Z,76.60
2018-06-08T19:47:11.714Z,77.00
2018-06-08T19:49:38.521Z,76.90
2018-06-08T19:52:06.210Z,77.00
2018-06-08T19:54:33.034Z,77.10
2018-06-08T19:57:00.142Z,77.40
2018-06-08T19:59:26.955Z,77.30
2018-06-08T20:01:53.690Z,77.50
2018-06-08T20:04:20.493Z,78.20
2018-06-08T20:06:47.354Z,78.40
2018-06-08T20:09:14.102Z,78.20
2018-06-08T20:11:40.914Z,79.00
2018-06-08T20:14:08.402Z,79.40
2018-06-08T20:16:35.424Z,79.40
2018-06-08T20:19:02.693Z,80.10
2018-06-08T20:21:29.642Z,80.40
2018-06-08T20:23:57.196Z,80.20
2018-06-08T20:26:25.212Z,80.10
2018-06-08T20:28:51.945Z,81.10
2018-06-08T20:31:18.693Z,82.00
2018-06-08T20:33:45.414Z,82.20
2018-06-08T20:36:12.964Z,82.40
2018-06-08T20:38:40.508Z,82.30
2018-06-08T20:41:07.587Z,82.30
2018-06-08T20:43:34.790Z,83.60
2018-06-08T20:46:01.555Z,83.20
2018-06-08T20:48:28.471Z,83.50
2018-06-08T20:50:55.492Z,84.10
2018-06-08T20:53:22.979Z,85.60
2018-06-08T20:55:49.959Z,85.50
2018-06-08T20:58:17.687Z,85.00
2018-06-08T21:00:44.706Z,87.80
2018-06-08T21:03:11.442Z,87.20
2018-06-08T21:05:38.272Z,88.10
2018-06-08T21:08:05.118Z,87.50
2018-06-08T21:10:32.173Z,88.30
2018-06-08T21:12:59.173Z,88.90
2018-06-08T21:15:26.146Z,90.00
2018-06-08T21:17:52.912Z,91.10
2018-06-08T21:20:19.771Z,92.10
2018-06-08T21:22:46.626Z,93.50
2018-06-08T21:25:13.471Z,93.90
2018-06-08T21:27:41.751Z,95.40
2018-06-08T21:30:08.921Z,96.70
2018-06-08T21:32:35.650Z,97.90
2018-06-08T21:35:02.481Z,99.10
2018-06-08T21:37:29.254Z,99.90
2018-06-08T21:39:56.055Z,99.90
2018-06-08T21:42:23.556Z,99.90
2018-06-08T21:44:50.272Z,99.90
2018-06-08T21:47:17.869Z,99.90
2018-06-08T21:49:45.866Z,99.90
2018-06-08T21:52:13.514Z,99.90
2018-06-08T21:54:40.506Z,99.90
2018-06-08T21:57:08.950Z,99.90
2018-06-08T21:59:35.901Z,99.90
2018-06-08T22:02:03.467Z,99.90
2018-06-08T22:04:31.236Z,99.90
2018-06-08T22:06:58.803Z,99.90
2018-06-08T22:09:27.843Z,99.90
2018-06-08T22:11:55.157Z,99.90
2018-06-08T22:14:29.858Z,99.90
2018-06-08T22:16:57.552Z,99.90
2018-06-08T22:19:25.222Z,99.90
2018-06-08T22:21:52.070Z,99.90
2018-06-08T22:24:19.431Z,99.90
2018-06-08T22:26:46.322Z,99.90
2018-06-08T22:29:13.707Z,99.90
2018-06-08T22:31:41.444Z,99.90
2018-06-08T22:34:08.166Z,99.90
2018-06-08T22:36:35.104Z,99.90
2018-06-08T22:39:02.780Z,99.90
2018-06-08T22:41:29.721Z,99.90
2018-06-08T22:43:56.582Z,99.90
2018-06-08T22:46:23.420Z,99.90
2018-06-08T22:48:50.578Z,99.90
2018-06-08T22:51:17.425Z,99.90
2018-06-08T22:53:44.375Z,99.90
2018-06-08T22:56:11.532Z,99.90
2018-06-08T22:58:38.892Z,99.90
2018-06-08T23:01:05.637Z,99.90
2018-06-08T23:03:32.590Z,99.90
2018-06-08T23:05:59.333Z,99.90
2018-06-08T23:08:33.039Z,99.90
2018-06-08T23:10:59.887Z,99.90
2018-06-08T23:13:26.738Z,99.90
2018-06-08T23:15:53.587Z,99.90
2018-06-08T23:18:20.436Z,99.90
2018-06-08T23:20:47.281Z,99.90
2018-06-08T23:23:14.133Z,99.90
2018-06-08T23:25:40.979Z,99.90
2018-06-08T23:28:07.932Z,99.90
2018-06-08T23:30:34.676Z,99.90
2018-06-08T23:33:01.449Z,99.90
2018-06-08T23:35:28.267Z,99.90
2018-06-08T23:37:55.122Z,99.90
2018-06-08T23:40:22.890Z,99.90
2018-06-08T23:42:50.047Z,99.90
2018-06-08T23:45:16.997Z,99.90
2018-06-08T23:47:43.746Z,99.90
2018-06-08T23:50:10.592Z,99.90
2018-06-08T23:52:37.362Z,99.90
2018-06-08T23:55:04.288Z,99.90
2018-06-08T23:57:31.037Z,99.90
2018-06-08T23:59:57.805Z,99.90
